createdAt,value
2017-12-11T00:00:15.030Z,949.48
2017-12-11T00:01:15.011Z,949.52
2017-12-11T00:02:15.009Z,949.46
2017-12-11T00:03:15.002Z,949.46
2017-12-11T00:04:36.010Z,949.43
2017-12-11T00:05:14.994Z,949.46
2017-12-11T00:06:14.992Z,949.42
2017-12-11T00:07:14.980Z,949.39
2017-12-11T00:08:14.982Z,949.52
2017-12-11T00:09:14.976Z,949.48
2017-12-11T00:10:35.976Z,949.38
2017-12-11T00:11:14.976Z,949.35
2017-12-11T00:12:14.963Z,949.34
2017-12-11T00:13:14.965Z,949.29
2017-12-11T00:14:15.002Z,949.30
2017-12-11T00:15:14.973Z,949.38
2017-12-11T00:16:35.951Z,949.36
2017-12-11T00:17:14.942Z,949.36
2017-12-11T00:18:14.934Z,949.36
2017-12-11T00:19:14.930Z,949.42
2017-12-11T00:20:14.928Z,949.41
2017-12-11T00:21:14.924Z,949.48
2017-12-11T00:22:35.922Z,949.43
2017-12-11T00:23:14.910Z,949.45
2017-12-11T00:24:14.907Z,949.46
2017-12-11T00:25:14.922Z,949.50
2017-12-11T00:26:14.895Z,949.52
2017-12-11T00:27:14.894Z,949.49
2017-12-11T00:28:35.902Z,949.52
2017-12-11T00:29:14.883Z,949.59
2017-12-11T00:30:14.883Z,949.66
2017-12-11T00:31:14.880Z,949.64
2017-12-11T00:32:14.872Z,949.64
2017-12-11T00:33:14.875Z,949.57
2017-12-11T00:34:35.878Z,949.57
2017-12-11T00:35:14.857Z,949.67
2017-12-11T00:36:14.854Z,949.57
2017-12-11T00:37:14.846Z,949.48
2017-12-11T00:38:14.846Z,949.39
2017-12-11T00:39:14.843Z,949.50
2017-12-11T00:40:35.843Z,949.44
2017-12-11T00:41:14.831Z,949.52
2017-12-11T00:42:14.822Z,949.34
2017-12-11T00:43:14.824Z,949.34
2017-12-11T00:44:14.818Z,949.29
2017-12-11T00:45:14.817Z,949.13
2017-12-11T00:46:35.815Z,949.21
2017-12-11T00:47:14.799Z,949.20
2017-12-11T00:48:14.797Z,949.17
2017-12-11T00:49:14.794Z,949.28
2017-12-11T00:50:14.786Z,949.17
2017-12-11T00:51:14.781Z,949.26
2017-12-11T00:52:35.787Z,949.29
2017-12-11T00:53:14.780Z,949.20
2017-12-11T00:54:14.771Z,949.21
2017-12-11T00:55:14.767Z,949.24
2017-12-11T00:56:14.767Z,949.22
2017-12-11T00:57:14.757Z,949.24
2017-12-11T00:58:35.761Z,949.18
2017-12-11T00:59:14.750Z,949.22
2017-12-11T01:00:14.742Z,949.29
2017-12-11T01:01:14.741Z,949.37
2017-12-11T01:02:14.768Z,949.41
2017-12-11T01:03:14.733Z,949.30
2017-12-11T01:04:35.737Z,949.23
2017-12-11T01:05:14.722Z,949.21
2017-12-11T01:06:14.716Z,949.28
2017-12-11T01:07:14.714Z,949.46
2017-12-11T01:08:14.708Z,949.40
2017-12-11T01:09:14.703Z,949.38
2017-12-11T01:10:35.700Z,949.34
2017-12-11T01:11:14.693Z,949.39
2017-12-11T01:12:14.691Z,949.23
2017-12-11T01:13:14.685Z,949.28
2017-12-11T01:14:14.678Z,949.37
2017-12-11T01:15:14.672Z,949.20
2017-12-11T01:16:35.677Z,949.26
2017-12-11T01:17:14.667Z,949.44
2017-12-11T01:18:14.657Z,949.49
2017-12-11T01:19:14.662Z,949.42
2017-12-11T01:20:14.649Z,949.37
2017-12-11T01:21:14.648Z,949.42
2017-12-11T01:22:35.647Z,949.42
2017-12-11T01:23:14.637Z,949.50
2017-12-11T01:24:14.635Z,949.52
2017-12-11T01:25:14.636Z,949.61
2017-12-11T01:26:14.627Z,949.63
2017-12-11T01:27:14.623Z,949.57
2017-12-11T01:28:35.639Z,949.61
2017-12-11T01:29:14.612Z,949.68
2017-12-11T01:30:14.604Z,949.82
2017-12-11T01:31:14.604Z,949.87
2017-12-11T01:32:14.603Z,949.97
2017-12-11T01:33:14.596Z,949.99
2017-12-11T01:34:35.595Z,949.95
2017-12-11T01:35:14.582Z,950.08
2017-12-11T01:36:14.582Z,950.08
2017-12-11T01:37:14.583Z,950.02
2017-12-11T01:38:14.569Z,949.95
2017-12-11T01:39:14.579Z,950.03
2017-12-11T01:40:35.572Z,950.04
2017-12-11T01:41:14.560Z,950.07
2017-12-11T01:42:14.552Z,950.14
2017-12-11T01:43:14.553Z,950.15
2017-12-11T01:44:14.547Z,950.16
2017-12-11T01:45:14.547Z,950.12
2017-12-11T01:46:35.545Z,950.18
2017-12-11T01:47:14.534Z,950.21
2017-12-11T01:48:14.526Z,950.30
2017-12-11T01:49:14.529Z,950.30
2017-12-11T01:50:14.521Z,950.24
2017-12-11T01:51:14.519Z,950.15
2017-12-11T01:52:35.519Z,950.28
2017-12-11T01:53:14.509Z,950.30
2017-12-11T01:54:14.502Z,950.27
2017-12-11T01:55:14.506Z,950.21
2017-12-11T01:56:14.495Z,950.17
2017-12-11T01:57:14.489Z,950.29
2017-12-11T01:58:35.487Z,950.30
2017-12-11T01:59:14.475Z,950.25
2017-12-11T02:00:14.478Z,950.26
2017-12-11T02:01:14.479Z,950.38
2017-12-11T02:02:14.465Z,950.31
2017-12-11T02:03:14.462Z,950.30
2017-12-11T02:04:35.466Z,950.48
2017-12-11T02:05:14.452Z,950.41
2017-12-11T02:06:14.450Z,950.47
2017-12-11T02:07:14.450Z,950.48
2017-12-11T02:08:14.433Z,950.54
2017-12-11T02:09:14.436Z,950.68
2017-12-11T02:10:35.438Z,950.66
2017-12-11T02:11:14.436Z,950.64
2017-12-11T02:12:14.473Z,950.65
2017-12-11T02:13:14.415Z,950.67
2017-12-11T02:14:14.415Z,950.69
2017-12-11T02:15:14.447Z,950.69
2017-12-11T02:16:35.411Z,950.67
2017-12-11T02:17:14.400Z,950.68
2017-12-11T02:18:14.395Z,950.70
2017-12-11T02:19:14.399Z,950.75
2017-12-11T02:20:14.387Z,950.69
2017-12-11T02:21:14.389Z,950.66
2017-12-11T02:22:35.383Z,950.74
2017-12-11T02:23:14.376Z,950.69
2017-12-11T02:24:14.370Z,950.71
2017-12-11T02:25:14.373Z,950.73
2017-12-11T02:26:14.362Z,950.63
2017-12-11T02:27:14.359Z,950.69
2017-12-11T02:28:35.370Z,950.56
2017-12-11T02:29:14.361Z,950.68
2017-12-11T02:30:14.346Z,950.62
2017-12-11T02:31:14.345Z,950.54
2017-12-11T02:32:14.339Z,950.63
2017-12-11T02:33:14.335Z,950.64
2017-12-11T02:34:35.338Z,950.65
2017-12-11T02:35:14.355Z,950.57
2017-12-11T02:36:14.327Z,950.57
2017-12-11T02:37:14.319Z,950.61
2017-12-11T02:38:14.315Z,950.63
2017-12-11T02:39:14.311Z,950.63
2017-12-11T02:40:35.312Z,950.55
2017-12-11T02:41:14.302Z,950.63
2017-12-11T02:42:14.295Z,950.64
2017-12-11T02:43:14.289Z,950.59
2017-12-11T02:44:14.295Z,950.59
2017-12-11T02:45:14.287Z,950.48
2017-12-11T02:46:35.290Z,950.54
2017-12-11T02:47:14.291Z,950.52
2017-12-11T02:48:14.271Z,950.46
2017-12-11T02:49:14.311Z,950.49
2017-12-11T02:50:14.270Z,950.49
2017-12-11T02:51:14.262Z,950.52
2017-12-11T02:52:35.269Z,950.44
2017-12-11T02:53:14.250Z,950.45
2017-12-11T02:54:14.247Z,950.43
2017-12-11T02:55:14.250Z,950.51
2017-12-11T02:56:14.247Z,950.49
2017-12-11T02:57:14.239Z,950.43
2017-12-11T02:58:35.254Z,950.47
2017-12-11T02:59:14.226Z,950.43
2017-12-11T03:00:14.225Z,950.44
2017-12-11T03:01:14.224Z,950.46
2017-12-11T03:02:14.222Z,950.46
2017-12-11T03:03:14.219Z,950.44
2017-12-11T03:04:35.221Z,950.50
2017-12-11T03:05:14.209Z,950.50
2017-12-11T03:06:14.203Z,950.45
2017-12-11T03:07:14.197Z,950.51
2017-12-11T03:08:14.190Z,950.54
2017-12-11T03:09:14.193Z,950.49
2017-12-11T03:10:35.194Z,950.44
2017-12-11T03:11:14.185Z,950.46
2017-12-11T03:12:14.179Z,950.50
2017-12-11T03:13:14.191Z,950.50
2017-12-11T03:14:14.169Z,950.46
2017-12-11T03:15:14.164Z,950.48
2017-12-11T03:16:35.174Z,950.52
2017-12-11T03:17:14.162Z,950.50
2017-12-11T03:18:14.161Z,950.59
2017-12-11T03:19:14.152Z,950.67
2017-12-11T03:20:14.149Z,950.70
2017-12-11T03:21:14.143Z,950.76
2017-12-11T03:22:35.147Z,950.81
2017-12-11T03:23:14.151Z,950.84
2017-12-11T03:24:14.133Z,950.88
2017-12-11T03:25:14.130Z,950.82
2017-12-11T03:26:14.127Z,950.88
2017-12-11T03:27:14.128Z,950.86
2017-12-11T03:28:35.139Z,950.88
2017-12-11T03:29:14.111Z,950.88
2017-12-11T03:30:14.118Z,950.92
2017-12-11T03:31:14.111Z,950.91
2017-12-11T03:32:14.101Z,950.83
2017-12-11T03:33:14.095Z,950.91
2017-12-11T03:34:35.101Z,950.90
2017-12-11T03:35:14.092Z,950.94
2017-12-11T03:36:14.088Z,950.94
2017-12-11T03:37:14.082Z,950.94
2017-12-11T03:38:14.086Z,950.96
2017-12-11T03:39:14.076Z,950.99
2017-12-11T03:40:35.087Z,951.09
2017-12-11T03:41:14.068Z,951.18
2017-12-11T03:42:14.062Z,951.21
2017-12-11T03:43:14.097Z,951.19
2017-12-11T03:44:14.062Z,951.29
2017-12-11T03:45:14.095Z,951.29
2017-12-11T03:46:35.054Z,951.38
2017-12-11T03:47:14.045Z,951.40
2017-12-11T03:48:14.043Z,951.37
2017-12-11T03:49:14.033Z,951.43
2017-12-11T03:50:14.033Z,951.42
2017-12-11T03:51:14.033Z,951.45
2017-12-11T03:52:35.047Z,951.43
2017-12-11T03:53:14.027Z,951.50
2017-12-11T03:54:14.017Z,951.55
2017-12-11T03:55:14.012Z,951.58
2017-12-11T03:56:14.014Z,951.61
2017-12-11T03:57:14.008Z,951.76
2017-12-11T03:58:35.011Z,951.80
2017-12-11T03:59:13.994Z,951.82
2017-12-11T04:00:13.993Z,951.88
2017-12-11T04:01:13.992Z,951.81
2017-12-11T04:02:13.985Z,951.77
2017-12-11T04:03:13.987Z,951.81
2017-12-11T04:04:34.987Z,951.87
2017-12-11T04:05:13.975Z,951.94
2017-12-11T04:06:13.974Z,952.03
2017-12-11T04:07:13.969Z,952.13
2017-12-11T04:08:13.960Z,952.24
2017-12-11T04:09:13.961Z,952.35
2017-12-11T04:10:34.966Z,952.46
2017-12-11T04:11:13.956Z,952.49
2017-12-11T04:12:13.954Z,952.43
2017-12-11T04:13:13.978Z,952.34
2017-12-11T04:14:13.944Z,952.29
2017-12-11T04:15:13.942Z,952.29
2017-12-11T04:16:34.949Z,952.28
2017-12-11T04:17:13.938Z,952.28
2017-12-11T04:18:13.934Z,952.20
2017-12-11T04:19:13.926Z,952.10
2017-12-11T04:20:13.923Z,952.09
2017-12-11T04:21:13.934Z,952.05
2017-12-11T04:22:34.922Z,951.97
2017-12-11T04:23:13.915Z,952.04
2017-12-11T04:24:13.907Z,952.04
2017-12-11T04:25:13.902Z,952.07
2017-12-11T04:26:13.901Z,952.07
2017-12-11T04:27:13.891Z,952.05
2017-12-11T04:28:34.900Z,952.05
2017-12-11T04:29:13.893Z,952.07
2017-12-11T04:30:13.884Z,952.13
2017-12-11T04:31:13.885Z,952.14
2017-12-11T04:32:13.882Z,952.23
2017-12-11T04:33:13.875Z,952.28
2017-12-11T04:34:34.877Z,952.33
2017-12-11T04:35:13.863Z,952.40
2017-12-11T04:36:13.864Z,952.42
2017-12-11T04:37:13.864Z,952.42
2017-12-11T04:38:13.850Z,952.42
2017-12-11T04:39:13.847Z,952.40
2017-12-11T04:40:34.865Z,952.45
2017-12-11T04:41:13.848Z,952.43
2017-12-11T04:42:13.837Z,952.42
2017-12-11T04:43:13.833Z,952.38
2017-12-11T04:44:13.831Z,952.33
2017-12-11T04:45:13.825Z,952.35
2017-12-11T04:46:34.831Z,952.30
2017-12-11T04:47:13.822Z,952.24
2017-12-11T04:48:13.814Z,952.29
2017-12-11T04:49:13.816Z,952.23
2017-12-11T04:50:13.820Z,952.31
2017-12-11T04:51:13.802Z,952.26
2017-12-11T04:52:34.811Z,952.32
2017-12-11T04:53:13.808Z,952.30
2017-12-11T04:54:13.790Z,952.40
2017-12-11T04:55:13.798Z,952.38
2017-12-11T04:56:13.793Z,952.28
2017-12-11T04:57:13.792Z,952.33
2017-12-11T04:58:34.781Z,952.35
2017-12-11T04:59:13.786Z,952.28
2017-12-11T05:00:13.767Z,952.35
2017-12-11T05:01:13.758Z,952.35
2017-12-11T05:02:13.766Z,952.33
2017-12-11T05:03:13.753Z,952.31
2017-12-11T05:04:34.756Z,952.36
2017-12-11T05:05:13.744Z,952.29
2017-12-11T05:06:13.743Z,952.27
2017-12-11T05:07:13.734Z,952.34
2017-12-11T05:08:13.731Z,952.31
2017-12-11T05:09:13.725Z,952.40
2017-12-11T05:10:34.746Z,952.40
2017-12-11T05:11:13.718Z,952.36
2017-12-11T05:12:13.716Z,952.40
2017-12-11T05:13:13.712Z,952.44
2017-12-11T05:14:13.706Z,952.45
2017-12-11T05:15:13.707Z,952.44
2017-12-11T05:16:34.713Z,952.47
2017-12-11T05:17:13.694Z,952.54
2017-12-11T05:18:13.685Z,952.57
2017-12-11T05:19:13.687Z,952.59
2017-12-11T05:20:13.680Z,952.61
2017-12-11T05:21:13.676Z,952.62
2017-12-11T05:22:34.683Z,952.62
2017-12-11T05:23:13.668Z,952.59
2017-12-11T05:24:13.681Z,952.54
2017-12-11T05:25:13.662Z,952.55
2017-12-11T05:26:13.659Z,952.57
2017-12-11T05:27:13.657Z,952.59
2017-12-11T05:28:34.715Z,952.57
2017-12-11T05:29:13.645Z,952.61
2017-12-11T05:30:13.642Z,952.60
2017-12-11T05:31:13.636Z,952.58
2017-12-11T05:32:13.627Z,952.57
2017-12-11T05:33:13.627Z,952.57
2017-12-11T05:34:34.692Z,952.53
2017-12-11T05:35:13.641Z,952.61
2017-12-11T05:36:13.616Z,952.59
2017-12-11T05:37:13.614Z,952.55
2017-12-11T05:38:13.614Z,952.54
2017-12-11T05:39:13.601Z,952.57
2017-12-11T05:40:34.609Z,952.54
2017-12-11T05:41:13.603Z,952.54
2017-12-11T05:42:13.593Z,952.54
2017-12-11T05:43:13.593Z,952.58
2017-12-11T05:44:13.585Z,952.65
2017-12-11T05:45:13.627Z,952.64
2017-12-11T05:46:34.589Z,952.58
2017-12-11T05:47:13.577Z,952.62
2017-12-11T05:48:13.571Z,952.63
2017-12-11T05:49:13.564Z,952.66
2017-12-11T05:50:13.557Z,952.67
2017-12-11T05:51:13.557Z,952.68
2017-12-11T05:52:34.566Z,952.66
2017-12-11T05:53:13.594Z,952.70
2017-12-11T05:54:13.544Z,952.72
2017-12-11T05:55:13.560Z,952.72
2017-12-11T05:56:13.543Z,952.64
2017-12-11T05:57:13.538Z,952.64
2017-12-11T05:58:34.534Z,952.70
2017-12-11T05:59:13.519Z,952.69
2017-12-11T06:00:13.518Z,952.70
2017-12-11T06:01:13.513Z,952.71
2017-12-11T06:02:13.512Z,952.69
2017-12-11T06:03:13.507Z,952.74
2017-12-11T06:04:34.518Z,952.75
2017-12-11T06:05:13.500Z,952.78
2017-12-11T06:06:13.501Z,952.75
2017-12-11T06:07:13.490Z,952.73
2017-12-11T06:08:13.490Z,952.72
2017-12-11T06:09:13.483Z,952.70
2017-12-11T06:10:34.484Z,952.67
2017-12-11T06:11:13.478Z,952.62
2017-12-11T06:12:13.472Z,952.56
2017-12-11T06:13:13.463Z,952.51
2017-12-11T06:14:13.466Z,952.46
2017-12-11T06:15:13.456Z,952.45
2017-12-11T06:16:34.477Z,952.41
2017-12-11T06:17:13.445Z,952.43
2017-12-11T06:18:13.446Z,952.39
2017-12-11T06:19:13.520Z,952.36
2017-12-11T06:20:13.439Z,952.39
2017-12-11T06:21:13.434Z,952.40
2017-12-11T06:22:34.436Z,952.40
2017-12-11T06:23:13.451Z,952.37
2017-12-11T06:24:13.435Z,952.37
2017-12-11T06:25:13.416Z,952.33
2017-12-11T06:26:13.416Z,952.34
2017-12-11T06:27:13.407Z,952.30
2017-12-11T06:28:34.414Z,952.34
2017-12-11T06:29:13.464Z,952.35
2017-12-11T06:30:13.408Z,952.35
2017-12-11T06:31:13.391Z,952.38
2017-12-11T06:32:13.387Z,952.36
2017-12-11T06:33:13.440Z,952.38
2017-12-11T06:34:34.382Z,952.37
2017-12-11T06:35:13.375Z,952.34
2017-12-11T06:36:13.370Z,952.36
2017-12-11T06:37:13.364Z,952.37
2017-12-11T06:38:13.368Z,952.40
2017-12-11T06:39:13.357Z,952.44
2017-12-11T06:40:34.357Z,952.49
2017-12-11T06:41:13.354Z,952.53
2017-12-11T06:42:13.343Z,952.53
2017-12-11T06:43:13.345Z,952.57
2017-12-11T06:44:13.334Z,952.56
2017-12-11T06:45:13.327Z,952.57
2017-12-11T06:46:34.332Z,952.57
2017-12-11T06:47:13.326Z,952.55
2017-12-11T06:48:13.316Z,952.59
2017-12-11T06:49:13.308Z,952.62
2017-12-11T06:50:13.306Z,952.58
2017-12-11T06:51:13.300Z,952.64
2017-12-11T06:52:34.304Z,952.55
2017-12-11T06:53:13.290Z,952.61
2017-12-11T06:54:13.292Z,952.66
2017-12-11T06:55:13.280Z,952.68
2017-12-11T06:56:13.283Z,952.70
2017-12-11T06:57:13.289Z,952.67
2017-12-11T06:58:34.273Z,952.68
2017-12-11T06:59:13.266Z,952.69
2017-12-11T07:00:13.273Z,952.72
2017-12-11T07:01:13.256Z,952.77
2017-12-11T07:02:13.248Z,952.74
2017-12-11T07:03:13.260Z,952.68
2017-12-11T07:04:34.248Z,952.75
2017-12-11T07:05:13.235Z,952.76
2017-12-11T07:06:13.230Z,952.79
2017-12-11T07:07:13.234Z,952.84
2017-12-11T07:08:13.219Z,952.85
2017-12-11T07:09:13.216Z,952.85
2017-12-11T07:10:34.210Z,952.84
2017-12-11T07:11:13.220Z,952.83
2017-12-11T07:12:13.203Z,952.80
2017-12-11T07:13:13.200Z,952.78
2017-12-11T07:14:13.189Z,952.73
2017-12-11T07:15:13.183Z,952.72
2017-12-11T07:16:34.196Z,952.70
2017-12-11T07:17:13.174Z,952.71
2017-12-11T07:18:13.168Z,952.69
2017-12-11T07:19:13.169Z,952.70
2017-12-11T07:20:13.175Z,952.72
2017-12-11T07:21:13.160Z,952.69
2017-12-11T07:22:34.153Z,952.69
2017-12-11T07:23:13.145Z,952.71
2017-12-11T07:24:13.136Z,952.77
2017-12-11T07:25:13.139Z,952.80
2017-12-11T07:26:13.134Z,952.84
2017-12-11T07:27:13.148Z,952.85
2017-12-11T07:28:34.133Z,952.88
2017-12-11T07:29:13.130Z,952.92
2017-12-11T07:30:13.112Z,952.96
2017-12-11T07:31:13.109Z,952.96
2017-12-11T07:32:13.115Z,952.97
2017-12-11T07:33:13.098Z,952.97
2017-12-11T07:34:34.101Z,952.96
2017-12-11T07:35:13.084Z,952.97
2017-12-11T07:36:13.086Z,953.03
2017-12-11T07:37:13.080Z,952.99
2017-12-11T07:38:13.095Z,953.00
2017-12-11T07:39:13.070Z,953.03
2017-12-11T07:40:34.078Z,953.07
2017-12-11T07:41:13.060Z,953.12
2017-12-11T07:42:13.081Z,953.10
2017-12-11T07:43:13.051Z,953.03
2017-12-11T07:44:13.053Z,953.02
2017-12-11T07:45:13.038Z,952.99
2017-12-11T07:46:34.048Z,952.96
2017-12-11T07:47:13.036Z,953.03
2017-12-11T07:48:13.031Z,952.96
2017-12-11T07:49:13.020Z,952.93
2017-12-11T07:50:13.022Z,952.90
2017-12-11T07:51:13.020Z,952.87
2017-12-11T07:52:34.020Z,952.87
2017-12-11T07:53:13.007Z,952.93
2017-12-11T07:54:13.005Z,952.91
2017-12-11T07:55:12.998Z,952.92
2017-12-11T07:56:12.993Z,952.89
2017-12-11T07:57:12.992Z,952.94
2017-12-11T07:58:34.020Z,952.98
2017-12-11T07:59:12.980Z,953.00
2017-12-11T08:00:12.982Z,953.03
2017-12-11T08:01:12.977Z,953.04
2017-12-11T08:02:13.034Z,953.04
2017-12-11T08:03:12.974Z,953.02
2017-12-11T08:04:33.971Z,953.01
2017-12-11T08:05:12.957Z,953.00
2017-12-11T08:06:12.956Z,953.04
2017-12-11T08:07:12.953Z,953.05
2017-12-11T08:08:12.943Z,953.08
2017-12-11T08:09:12.941Z,953.07
2017-12-11T08:10:33.940Z,953.09
2017-12-11T08:11:12.928Z,953.12
2017-12-11T08:12:12.935Z,953.10
2017-12-11T08:13:12.952Z,953.13
2017-12-11T08:14:12.920Z,953.11
2017-12-11T08:15:12.915Z,953.10
2017-12-11T08:16:33.918Z,953.09
2017-12-11T08:17:12.902Z,953.12
2017-12-11T08:18:12.911Z,953.13
2017-12-11T08:19:12.898Z,953.14
2017-12-11T08:20:12.899Z,953.11
2017-12-11T08:21:12.888Z,953.07
2017-12-11T08:22:33.896Z,953.09
2017-12-11T08:23:12.888Z,953.09
2017-12-11T08:24:12.889Z,953.06
2017-12-11T08:25:12.889Z,953.10
2017-12-11T08:26:12.873Z,953.12
2017-12-11T08:27:12.882Z,953.06
2017-12-11T08:28:33.894Z,953.08
2017-12-11T08:29:12.864Z,953.05
2017-12-11T08:30:12.860Z,953.03
2017-12-11T08:31:12.849Z,953.02
2017-12-11T08:32:12.852Z,953.02
2017-12-11T08:33:12.868Z,953.02
2017-12-11T08:34:33.860Z,953.07
2017-12-11T08:35:12.846Z,953.08
2017-12-11T08:36:12.845Z,953.11
2017-12-11T08:37:12.836Z,953.06
2017-12-11T08:38:12.833Z,953.06
2017-12-11T08:39:12.832Z,953.06
2017-12-11T08:40:33.871Z,953.07
2017-12-11T08:41:12.838Z,953.08
2017-12-11T08:42:12.821Z,953.07
2017-12-11T08:43:12.830Z,953.10
2017-12-11T08:44:12.810Z,953.08
2017-12-11T08:45:12.828Z,953.14
2017-12-11T08:46:33.810Z,953.15
2017-12-11T08:47:12.801Z,953.18
2017-12-11T08:48:12.797Z,953.20
2017-12-11T08:49:12.792Z,953.14
2017-12-11T08:50:12.790Z,953.09
2017-12-11T08:51:12.782Z,953.08
2017-12-11T08:52:33.795Z,953.12
2017-12-11T08:53:12.774Z,953.13
2017-12-11T08:54:12.775Z,953.17
2017-12-11T08:55:12.788Z,953.19
2017-12-11T08:56:12.770Z,953.19
2017-12-11T08:57:12.775Z,953.19
2017-12-11T08:58:33.761Z,953.25
2017-12-11T08:59:12.766Z,953.30
2017-12-11T09:00:12.767Z,953.32
2017-12-11T09:01:12.754Z,953.31
2017-12-11T09:02:12.749Z,953.30
2017-12-11T09:03:12.748Z,953.27
2017-12-11T09:04:33.751Z,953.29
2017-12-11T09:05:12.738Z,953.27
2017-12-11T09:06:12.734Z,953.27
2017-12-11T09:07:12.733Z,953.30
2017-12-11T09:08:12.780Z,953.34
2017-12-11T09:09:12.729Z,953.31
2017-12-11T09:10:33.724Z,953.32
2017-12-11T09:11:12.713Z,953.28
2017-12-11T09:12:12.714Z,953.24
2017-12-11T09:13:12.714Z,953.25
2017-12-11T09:14:12.711Z,953.24
2017-12-11T09:15:12.715Z,953.17
2017-12-11T09:16:33.713Z,953.15
2017-12-11T09:17:12.702Z,953.12
2017-12-11T09:18:12.712Z,953.14
2017-12-11T09:19:12.692Z,953.14
2017-12-11T09:20:12.685Z,953.14
2017-12-11T09:21:12.690Z,953.15
2017-12-11T09:22:33.689Z,953.20
2017-12-11T09:23:12.678Z,953.23
2017-12-11T09:24:12.681Z,953.25
2017-12-11T09:25:12.669Z,953.28
2017-12-11T09:26:12.674Z,953.26
2017-12-11T09:27:12.725Z,953.24
2017-12-11T09:28:33.687Z,953.22
2017-12-11T09:29:12.663Z,953.17
2017-12-11T09:30:12.659Z,953.12
2017-12-11T09:31:12.657Z,953.10
2017-12-11T09:32:12.662Z,953.05
2017-12-11T09:33:12.651Z,953.04
2017-12-11T09:34:33.660Z,953.00
2017-12-11T09:35:12.653Z,952.98
2017-12-11T09:36:12.658Z,952.97
2017-12-11T09:37:12.639Z,952.93
2017-12-11T09:38:12.644Z,952.98
2017-12-11T09:39:12.636Z,952.96
2017-12-11T09:40:33.650Z,952.96
2017-12-11T09:41:12.635Z,952.93
2017-12-11T09:42:12.629Z,952.85
2017-12-11T09:43:12.624Z,952.73
2017-12-11T09:44:12.619Z,952.63
2017-12-11T09:45:12.612Z,952.51
2017-12-11T09:46:33.623Z,952.45
2017-12-11T09:47:12.615Z,952.45
2017-12-11T09:48:12.612Z,952.43
2017-12-11T09:49:12.604Z,952.38
2017-12-11T09:50:12.603Z,952.35
2017-12-11T09:51:12.611Z,952.36
2017-12-11T09:52:33.600Z,952.46
2017-12-11T09:53:12.595Z,952.50
2017-12-11T09:54:12.592Z,952.51
2017-12-11T09:55:12.587Z,952.49
2017-12-11T09:56:12.584Z,952.50
2017-12-11T09:57:12.584Z,952.50
2017-12-11T09:58:33.581Z,952.54
2017-12-11T09:59:12.573Z,952.60
2017-12-11T10:00:12.572Z,952.62
2017-12-11T10:01:12.578Z,952.64
2017-12-11T10:02:12.569Z,952.64
2017-12-11T10:03:12.566Z,952.61
2017-12-11T10:04:33.576Z,952.61
2017-12-11T10:05:12.566Z,952.63
2017-12-11T10:06:12.562Z,952.61
2017-12-11T10:07:12.565Z,952.55
2017-12-11T10:08:12.573Z,952.55
2017-12-11T10:09:12.558Z,952.56
2017-12-11T10:10:33.557Z,952.55
2017-12-11T10:11:12.541Z,952.57
2017-12-11T10:12:12.540Z,952.50
2017-12-11T10:13:12.551Z,952.44
2017-12-11T10:14:12.534Z,952.37
2017-12-11T10:15:12.528Z,952.34
2017-12-11T10:16:33.538Z,952.34
2017-12-11T10:17:12.529Z,952.35
2017-12-11T10:18:12.540Z,952.40
2017-12-11T10:19:12.534Z,952.41
2017-12-11T10:20:12.519Z,952.44
2017-12-11T10:21:12.528Z,952.45
2017-12-11T10:22:33.518Z,952.40
2017-12-11T10:23:12.510Z,952.34
2017-12-11T10:24:12.556Z,952.43
2017-12-11T10:25:12.513Z,952.44
2017-12-11T10:26:12.518Z,952.45
2017-12-11T10:27:12.516Z,952.44
2017-12-11T10:28:33.523Z,952.47
2017-12-11T10:29:12.518Z,952.47
2017-12-11T10:30:12.496Z,952.43
2017-12-11T10:31:12.490Z,952.44
2017-12-11T10:32:12.489Z,952.43
2017-12-11T10:33:12.488Z,952.49
2017-12-11T10:34:33.488Z,952.43
2017-12-11T10:35:12.484Z,952.49
2017-12-11T10:36:12.518Z,952.56
2017-12-11T10:37:12.475Z,952.60
2017-12-11T10:38:12.466Z,952.64
2017-12-11T10:39:12.468Z,952.62
2017-12-11T10:40:33.475Z,952.63
2017-12-11T10:41:12.461Z,952.58
2017-12-11T10:42:12.487Z,952.51
2017-12-11T10:43:12.454Z,952.58
2017-12-11T10:44:12.465Z,952.57
2017-12-11T10:45:12.470Z,952.57
2017-12-11T10:46:33.464Z,952.58
2017-12-11T10:47:12.456Z,952.52
2017-12-11T10:48:12.444Z,952.55
2017-12-11T10:49:12.448Z,952.43
2017-12-11T10:50:12.439Z,952.36
2017-12-11T10:51:12.438Z,952.27
2017-12-11T10:52:33.445Z,952.22
2017-12-11T10:53:12.433Z,952.24
2017-12-11T10:54:12.426Z,952.25
2017-12-11T10:55:12.431Z,952.22
2017-12-11T10:56:12.434Z,952.19
2017-12-11T10:57:12.424Z,952.16
2017-12-11T10:58:33.423Z,952.18
2017-12-11T10:59:12.414Z,952.12
2017-12-11T11:00:12.409Z,952.16
2017-12-11T11:01:12.418Z,952.06
2017-12-11T11:02:12.409Z,952.06
2017-12-11T11:03:12.438Z,952.06
2017-12-11T11:04:33.405Z,952.04
2017-12-11T11:05:12.396Z,952.01
2017-12-11T11:06:12.402Z,951.96
2017-12-11T11:07:12.390Z,951.95
2017-12-11T11:08:12.394Z,951.93
2017-12-11T11:09:12.416Z,951.94
2017-12-11T11:10:33.394Z,951.95
2017-12-11T11:11:12.384Z,951.87
2017-12-11T11:12:12.376Z,951.83
2017-12-11T11:13:12.376Z,951.75
2017-12-11T11:14:12.375Z,951.75
2017-12-11T11:15:12.366Z,951.73
2017-12-11T11:16:33.381Z,951.72
2017-12-11T11:17:12.378Z,951.69
2017-12-11T11:18:12.364Z,951.71
2017-12-11T11:19:12.365Z,951.71
2017-12-11T11:20:12.357Z,951.68
2017-12-11T11:21:12.353Z,951.67
2017-12-11T11:22:33.353Z,951.64
2017-12-11T11:23:12.345Z,951.62
2017-12-11T11:24:12.347Z,951.58
2017-12-11T11:25:12.346Z,951.51
2017-12-11T11:26:12.344Z,951.52
2017-12-11T11:27:12.334Z,951.49
2017-12-11T11:28:33.345Z,951.48
2017-12-11T11:29:12.328Z,951.50
2017-12-11T11:30:12.338Z,951.51
2017-12-11T11:31:12.322Z,951.47
2017-12-11T11:32:12.332Z,951.43
2017-12-11T11:33:12.352Z,951.45
2017-12-11T11:34:33.336Z,951.34
2017-12-11T11:35:12.318Z,951.34
2017-12-11T11:36:12.311Z,951.36
2017-12-11T11:37:12.339Z,951.29
2017-12-11T11:38:12.307Z,951.31
2017-12-11T11:39:12.310Z,951.25
2017-12-11T11:40:33.310Z,951.22
2017-12-11T11:41:12.292Z,951.19
2017-12-11T11:42:12.294Z,951.09
2017-12-11T11:43:12.295Z,951.05
2017-12-11T11:44:12.292Z,950.94
2017-12-11T11:45:12.285Z,951.04
2017-12-11T11:46:33.293Z,951.01
2017-12-11T11:47:12.281Z,950.95
2017-12-11T11:48:12.278Z,950.96
2017-12-11T11:49:12.274Z,950.91
2017-12-11T11:50:12.271Z,950.93
2017-12-11T11:51:12.281Z,950.93
2017-12-11T11:52:33.280Z,950.92
2017-12-11T11:53:12.266Z,950.91
2017-12-11T11:54:12.267Z,950.89
2017-12-11T11:55:12.273Z,950.85
2017-12-11T11:56:12.291Z,950.88
2017-12-11T11:57:12.254Z,950.86
2017-12-11T11:58:33.270Z,950.83
2017-12-11T11:59:12.267Z,950.76
2017-12-11T12:00:12.256Z,950.74
2017-12-11T12:01:12.247Z,950.66
2017-12-11T12:02:12.249Z,950.68
2017-12-11T12:03:12.261Z,950.67
2017-12-11T12:04:33.248Z,950.63
2017-12-11T12:05:12.247Z,950.68
2017-12-11T12:06:12.247Z,950.71
2017-12-11T12:07:12.246Z,950.72
2017-12-11T12:08:12.239Z,950.70
2017-12-11T12:09:12.249Z,950.64
2017-12-11T12:10:33.236Z,950.61
2017-12-11T12:11:12.225Z,950.61
2017-12-11T12:12:12.224Z,950.56
2017-12-11T12:13:12.220Z,950.52
2017-12-11T12:14:12.226Z,950.47
2017-12-11T12:15:12.215Z,950.45
2017-12-11T12:16:33.229Z,950.55
2017-12-11T12:17:12.218Z,950.61
2017-12-11T12:18:12.210Z,950.61
2017-12-11T12:19:12.209Z,950.63
2017-12-11T12:20:12.214Z,950.63
2017-12-11T12:21:12.209Z,950.53
2017-12-11T12:22:33.231Z,950.45
2017-12-11T12:23:12.218Z,950.44
2017-12-11T12:24:12.195Z,950.43
2017-12-11T12:25:12.227Z,950.40
2017-12-11T12:26:12.193Z,950.36
2017-12-11T12:27:12.211Z,950.34
2017-12-11T12:28:33.197Z,950.30